Time;durP1;ratioP1;P1;durP2;ratioP2;P2;SDS_P1;SDS_P2;PMS_P1;PMS_P2;Temp;Humidity;BMP_temperature;BMP_pressure;BME280_temperature;BME280_humidity;BME280_pressure;Samples;Min_cycle;Max_cycle;Signal;HPM_P1;HPM_P2
2021/11/08 00:00:22;;;;;;;38.80;7.93;;;;;;;6.91;85.45;101711.94;5089710;28;20119;-63
2021/11/08 00:02:51;;;;;;;32.45;7.15;;;;;;;6.81;85.60;101710.88;5077355;28;20573;-63
2021/11/08 00:05:17;;;;;;;37.72;7.90;;;;;;;6.81;85.94;101702.13;5077447;28;20493;-63
2021/11/08 00:07:48;;;;;;;26.83;6.75;;;;;;;6.88;85.89;101712.16;5086041;28;20037;-64
2021/11/08 00:10:15;;;;;;;38.63;8.05;;;;;;;6.77;85.71;101709.41;5085355;28;20050;-62
2021/11/08 00:12:42;;;;;;;47.58;8.98;;;;;;;6.81;85.58;101713.50;5088872;28;20040;-62
2021/11/08 00:15:11;;;;;;;38.97;8.73;;;;;;;6.72;86.19;101711.50;5073125;28;20124;-62
2021/11/08 00:17:50;;;;;;;38.88;8.48;;;;;;;6.77;85.56;101714.69;5087909;28;20558;-62
2021/11/08 00:20:28;;;;;;;37.85;8.45;;;;;;;6.80;86.10;101710.97;5088859;28;20048;-62
2021/11/08 00:22:55;;;;;;;34.03;9.23;;;;;;;6.96;85.41;101706.31;5087166;28;20497;-62
2021/11/08 00:25:21;;;;;;;29.88;8.45;;;;;;;6.88;85.96;101709.50;5088660;28;20040;-62
2021/11/08 00:27:48;;;;;;;38.65;8.60;;;;;;;6.92;85.59;101705.69;5088813;28;20056;-62
2021/11/08 00:30:15;;;;;;;35.40;8.57;;;;;;;7.03;85.48;101707.59;5088776;28;20044;-62
2021/11/08 00:32:42;;;;;;;33.70;8.60;;;;;;;6.98;85.17;101712.34;5086822;28;20044;-63
2021/11/08 00:35:09;;;;;;;30.65;8.55;;;;;;;6.99;84.92;101708.75;5086894;28;20094;-63
2021/11/08 00:37:36;;;;;;;36.47;8.60;;;;;;;6.94;85.59;101713.50;5085538;28;20127;-63
2021/11/08 00:40:04;;;;;;;38.92;8.93;;;;;;;6.92;85.87;101712.78;5073896;28;20052;-63
2021/11/08 00:42:32;;;;;;;35.38;8.75;;;;;;;6.91;85.08;101704.03;5082261;28;20040;-63
2021/11/08 00:44:59;;;;;;;36.72;8.65;;;;;;;6.75;85.76;101700.75;5088374;28;20045;-63
2021/11/08 00:47:26;;;;;;;33.45;8.43;;;;;;;6.90;85.54;101707.59;5088416;28;20050;-63
2021/11/08 00:49:54;;;;;;;35.58;8.40;;;;;;;6.80;85.99;101706.53;5082355;28;20055;-63
2021/11/08 00:52:20;;;;;;;36.47;9.07;;;;;;;6.75;86.33;101711.31;5074659;28;20044;-63
2021/11/08 00:54:47;;;;;;;39.08;8.88;;;;;;;6.70;86.69;101714.25;5074576;28;20086;-62
2021/11/08 00:57:19;;;;;;;35.28;8.65;;;;;;;6.87;86.41;101709.59;5074515;28;20398;-62
2021/11/08 00:59:45;;;;;;;48.10;9.02;;;;;;;6.71;86.66;101717.72;5074685;28;20036;-62
2021/11/08 01:02:13;;;;;;;37.40;8.52;;;;;;;6.77;86.51;101719.09;5074359;28;20098;-62
2021/11/08 01:04:41;;;;;;;39.03;8.45;;;;;;;6.65;87.12;101718.16;5072586;28;20054;-63
2021/11/08 01:07:09;;;;;;;40.58;8.43;;;;;;;6.77;86.92;101716.44;5074780;28;20036;-63
2021/11/08 01:09:36;;;;;;;31.25;8.10;;;;;;;6.80;86.53;101725.00;5074488;28;20041;-63
2021/11/08 01:12:04;;;;;;;39.75;8.32;;;;;;;6.97;85.66;101723.00;5074814;28;20040;-63
2021/11/08 01:14:31;;;;;;;33.55;7.50;;;;;;;6.92;86.28;101723.31;5062627;28;20047;-63
2021/11/08 01:16:58;;;;;;;44.78;8.50;;;;;;;7.11;84.85;101722.88;5071422;28;20044;-62
2021/11/08 01:19:27;;;;;;;36.53;8.30;;;;;;;6.97;85.47;101729.13;5074215;28;20086;-62
2021/11/08 01:22:04;;;;;;;34.45;8.30;;;;;;;7.09;85.32;101730.06;5074557;28;20135;-62
2021/11/08 01:24:34;;;;;;;35.55;7.97;;;;;;;7.17;85.06;101726.88;5072526;28;20526;-62
2021/11/08 01:27:02;;;;;;;34.42;7.18;;;;;;;7.09;85.17;101736.19;5074266;28;20049;-62
2021/11/08 01:29:32;;;;;;;40.22;8.73;;;;;;;7.18;85.72;101741.78;5073646;28;20033;-62
2021/11/08 01:32:04;;;;;;;37.20;8.00;;;;;;;7.28;84.56;101735.75;5073927;28;20051;-62
2021/11/08 01:34:31;;;;;;;41.60;7.68;;;;;;;7.17;84.60;101740.06;5072200;28;20040;-62
2021/11/08 01:37:00;;;;;;;46.40;8.00;;;;;;;7.43;84.67;101732.97;5073970;28;20045;-62
2021/11/08 01:39:32;;;;;;;41.85;7.80;;;;;;;7.47;84.17;101729.97;5073261;28;20383;-64
2021/11/08 01:42:03;;;;;;;49.85;7.85;;;;;;;7.38;84.04;101732.44;5073365;28;20101;-62
2021/11/08 01:44:31;;;;;;;35.50;7.78;;;;;;;7.36;84.19;101742.28;5073934;28;20032;-62
2021/11/08 01:47:01;;;;;;;28.60;8.18;;;;;;;7.15;85.28;101737.56;5073788;28;20712;-62
2021/11/08 01:49:29;;;;;;;43.38;6.70;;;;;;;7.29;85.01;101736.56;5073596;28;20037;-62
2021/11/08 01:51:57;;;;;;;42.28;7.25;;;;;;;7.24;85.28;101729.00;5073727;28;20102;-62
2021/11/08 01:54:25;;;;;;;32.35;7.68;;;;;;;7.42;84.47;101729.50;5072820;28;20099;-63
2021/11/08 01:56:53;;;;;;;35.08;7.38;;;;;;;7.38;84.37;101737.72;5073501;28;20497;-63
2021/11/08 01:59:21;;;;;;;27.70;6.28;;;;;;;7.41;84.21;101741.00;5073563;28;20052;-63
2021/11/08 02:01:50;;;;;;;39.42;7.60;;;;;;;7.33;85.05;101746.00;5072368;28;20040;-63
2021/11/08 02:04:18;;;;;;;39.72;7.32;;;;;;;7.35;84.35;101740.56;5073438;28;20041;-63
2021/11/08 02:06:46;;;;;;;46.17;7.85;;;;;;;7.38;84.36;101746.47;5071499;28;20090;-64
2021/11/08 02:09:13;;;;;;;36.67;8.05;;;;;;;7.40;83.73;101744.56;5071256;28;20036;-63
2021/11/08 02:11:41;;;;;;;31.20;7.63;;;;;;;7.21;84.53;101745.03;5069447;28;20061;-63
2021/11/08 02:14:08;;;;;;;37.55;6.88;;;;;;;7.21;85.18;101742.41;5059662;28;20079;-63
2021/11/08 02:16:35;;;;;;;28.23;7.60;;;;;;;7.37;84.24;101747.44;5072084;28;20049;-63
2021/11/08 02:19:07;;;;;;;36.03;7.95;;;;;;;7.30;84.74;101749.66;5066200;28;20052;-63
2021/11/08 02:21:36;;;;;;;33.47;6.65;;;;;;;7.26;85.17;101739.44;5072687;28;20048;-63
2021/11/08 02:24:04;;;;;;;31.13;7.85;;;;;;;7.38;84.40;101743.84;5071605;28;20040;-63
2021/11/08 02:26:31;;;;;;;33.13;6.85;;;;;;;7.53;83.82;101744.56;5072989;28;20040;-62
2021/11/08 02:28:58;;;;;;;34.78;7.00;;;;;;;7.44;84.04;101742.56;5072756;28;20489;-62
2021/11/08 02:31:25;;;;;;;45.47;8.32;;;;;;;7.35;85.07;101745.84;5073015;28;20045;-62
2021/11/08 02:33:54;;;;;;;31.98;6.93;;;;;;;7.46;83.92;101745.97;5072529;28;20177;-62
2021/11/08 02:36:22;;;;;;;43.65;8.18;;;;;;;7.39;84.66;101740.25;5072842;28;20071;-62
2021/11/08 02:38:52;;;;;;;45.33;7.25;;;;;;;7.47;84.19;101756.38;5072314;28;20040;-62
2021/11/08 02:41:19;;;;;;;38.08;7.35;;;;;;;7.43;84.15;101748.81;5070755;28;20070;-62
2021/11/08 02:43:47;;;;;;;39.70;7.50;;;;;;;7.37;84.28;101749.22;5071584;28;20041;-62
2021/11/08 02:46:16;;;;;;;31.63;7.25;;;;;;;7.44;84.62;101743.44;5072987;28;20044;-64
2021/11/08 02:48:46;;;;;;;29.85;7.63;;;;;;;7.37;85.62;101743.94;5072715;28;20045;-62
2021/11/08 02:51:18;;;;;;;31.65;6.80;;;;;;;7.46;85.02;101749.44;5072889;28;20041;-62
2021/11/08 02:53:47;;;;;;;33.22;6.90;;;;;;;7.45;85.06;101749.53;5072774;28;20055;-62
2021/11/08 02:56:15;;;;;;;35.88;7.95;;;;;;;7.45;84.78;101755.66;5071977;28;20056;-62
2021/11/08 02:58:44;;;;;;;30.67;7.18;;;;;;;7.43;84.40;101749.66;5072422;28;20051;-63
2021/11/08 03:01:17;;;;;;;32.65;7.57;;;;;;;7.46;84.97;101754.72;5072487;28;20517;-64
2021/11/08 03:03:48;;;;;;;38.85;8.05;;;;;;;7.45;85.15;101749.53;5060872;28;20040;-62
2021/11/08 03:06:31;;;;;;;36.28;6.75;;;;;;;7.43;84.79;101760.22;5061062;28;20037;-63
2021/11/08 03:09:07;;;;;;;32.75;7.00;;;;;;;7.48;85.69;101760.72;5052438;28;20061;-62
2021/11/08 03:11:34;;;;;;;39.40;7.90;;;;;;;7.77;83.34;101765.72;5062698;28;20041;-62
2021/11/08 03:14:05;;;;;;;37.92;7.10;;;;;;;7.52;84.09;101766.63;5071650;28;20098;-62
2021/11/08 03:16:40;;;;;;;49.60;8.25;;;;;;;7.52;84.67;101768.44;5072535;28;20140;-64
2021/11/08 03:19:18;;;;;;;34.72;7.22;;;;;;;7.64;83.23;101762.25;5072448;28;20048;-63
2021/11/08 03:21:47;;;;;;;34.47;7.30;;;;;;;7.48;85.01;101762.53;5072039;28;20511;-64
2021/11/08 03:24:20;;;;;;;39.45;7.80;;;;;;;7.63;84.07;101761.44;5067035;28;20432;-64
2021/11/08 03:26:50;;;;;;;29.60;7.40;;;;;;;7.50;85.14;101760.63;5061365;28;20036;-64
2021/11/08 03:29:18;;;;;;;36.35;7.28;;;;;;;7.50;84.41;101758.81;5071923;28;20033;-63
2021/11/08 03:31:49;;;;;;;34.95;7.45;;;;;;;7.47;84.49;101751.09;5072235;28;20045;-62
2021/11/08 03:34:17;;;;;;;39.38;7.85;;;;;;;7.56;84.53;101749.63;5070029;28;20048;-62
2021/11/08 03:36:47;;;;;;;39.88;7.78;;;;;;;7.62;84.86;101762.41;5071996;28;20137;-62
2021/11/08 03:39:14;;;;;;;51.97;8.75;;;;;;;7.72;84.11;101762.56;5071438;28;20414;-62
2021/11/08 03:41:41;;;;;;;34.53;8.20;;;;;;;7.54;84.50;101762.09;5071784;28;20036;-63
2021/11/08 03:44:08;;;;;;;30.02;7.55;;;;;;;7.64;84.55;101754.34;5072330;28;20044;-62
2021/11/08 03:46:35;;;;;;;35.03;7.25;;;;;;;7.49;84.99;101774.75;5072325;28;20063;-62
2021/11/08 03:49:02;;;;;;;33.13;7.55;;;;;;;7.60;84.84;101769.56;5072277;28;20396;-62
2021/11/08 03:51:29;;;;;;;38.25;8.18;;;;;;;7.49;85.67;101769.47;5072298;28;20098;-62
2021/11/08 03:53:56;;;;;;;37.45;8.20;;;;;;;7.63;84.77;101768.50;5071786;28;20069;-62
2021/11/08 03:56:22;;;;;;;36.28;8.07;;;;;;;7.53;85.14;101778.91;5071706;28;20040;-62
2021/11/08 03:58:50;;;;;;;35.25;8.02;;;;;;;7.73;83.71;101782.75;5072197;28;20044;-62
2021/11/08 04:01:17;;;;;;;36.40;8.07;;;;;;;7.83;83.05;101783.75;5063333;28;20049;-62
2021/11/08 04:03:44;;;;;;;36.83;7.90;;;;;;;7.72;83.75;101781.06;5056961;28;20068;-63
2021/11/08 04:06:11;;;;;;;34.22;8.98;;;;;;;7.63;83.94;101782.56;5054375;28;20095;-63
2021/11/08 04:08:37;;;;;;;33.72;7.68;;;;;;;7.50;84.48;101790.50;5058969;28;20037;-63
2021/11/08 04:11:05;;;;;;;46.38;8.18;;;;;;;7.64;84.45;101784.25;5070495;28;20044;-62
2021/11/08 04:13:36;;;;;;;42.67;9.85;;;;;;;7.69;83.53;101787.41;5070186;28;20448;-62
2021/11/08 04:16:06;;;;;;;42.70;9.48;;;;;;;7.71;84.70;101787.28;5071352;28;20051;-62
2021/11/08 04:18:33;;;;;;;38.08;8.05;;;;;;;7.68;83.92;101788.34;5070514;28;20477;-62
2021/11/08 04:21:02;;;;;;;34.80;8.35;;;;;;;7.66;85.08;101787.63;5069614;28;20037;-62
2021/11/08 04:23:30;;;;;;;37.28;8.13;;;;;;;7.66;84.79;101792.91;5057755;28;20530;-62
2021/11/08 04:26:01;;;;;;;31.20;7.95;;;;;;;7.67;84.90;101786.66;5072819;28;20470;-63
2021/11/08 04:28:28;;;;;;;41.28;7.88;;;;;;;7.59;85.10;101786.38;5075115;28;20041;-62
2021/11/08 04:30:55;;;;;;;36.38;7.57;;;;;;;7.56;84.76;101783.94;5072328;28;20098;-62
2021/11/08 04:33:44;;;;;;;38.38;7.30;;;;;;;7.66;84.26;101784.97;5075067;28;20102;-63
2021/11/08 04:38:55;;;;;;;38.95;7.78;;;;;;;7.66;84.15;101789.44;5109600;27;20331;-63
2021/11/08 04:44:34;;;;;;;35.83;7.97;;;;;;;7.59;84.06;101796.94;5110171;28;20048;-63
2021/11/08 04:50:24;;;;;;;51.38;8.55;;;;;;;7.52;84.53;101794.84;5109822;28;20805;-63
2021/11/08 04:53:03;;;;;;;33.83;7.90;;;;;;;7.52;84.31;101797.50;5109952;28;20070;-63
2021/11/08 04:55:29;;;;;;;37.13;7.88;;;;;;;7.44;84.28;101792.72;5094391;28;20048;-63
2021/11/08 04:58:20;;;;;;;40.72;8.50;;;;;;;7.52;84.16;101794.84;5102367;28;20040;-63
2021/11/08 05:31:18;;;;;;;45.72;8.55;;;;;;;7.35;85.06;101825.03;5107561;28;20055;-63
2021/11/08 05:33:44;;;;;;;41.70;9.07;;;;;;;7.46;84.45;101817.25;5106499;28;20408;-64
2021/11/08 05:36:11;;;;;;;37.47;9.00;;;;;;;7.45;84.77;101819.03;5108761;28;20051;-63
2021/11/08 05:38:38;;;;;;;42.50;9.60;;;;;;;7.56;83.95;101823.56;5108260;28;20056;-63
2021/11/08 05:41:05;;;;;;;36.95;10.05;;;;;;;7.69;83.54;101823.53;5108739;28;20040;-63
2021/11/08 05:43:31;;;;;;;48.45;9.60;;;;;;;7.73;83.44;101826.78;5108472;28;20492;-63
2021/11/08 05:45:58;;;;;;;39.65;9.48;;;;;;;7.51;83.98;101825.66;5107292;28;20048;-63
2021/11/08 05:48:26;;;;;;;45.88;9.23;;;;;;;7.50;84.19;101822.19;5104012;28;20123;-63
2021/11/08 05:50:52;;;;;;;43.97;10.73;;;;;;;7.53;84.18;101826.44;5094946;28;20040;-63
2021/11/08 05:53:20;;;;;;;45.47;9.90;;;;;;;7.44;84.42;101824.41;5093706;28;20051;-63
2021/11/08 05:55:54;;;;;;;43.55;10.15;;;;;;;7.41;84.83;101830.75;5094915;28;20389;-63
2021/11/08 06:11:25;;;;;;;43.13;10.48;;;;;;;7.39;85.20;101831.81;5094468;28;20050;-63
2021/11/08 06:51:13;;;;;;;35.42;9.65;;;;;;;7.07;86.21;101898.19;5093299;28;20071;-62
2021/11/08 06:53:40;;;;;;;49.63;11.00;;;;;;;7.09;85.58;101901.56;5093200;28;20043;-63
2021/11/08 06:56:07;;;;;;;49.95;10.95;;;;;;;7.09;85.37;101904.22;5093631;28;20047;-63
2021/11/08 06:58:34;;;;;;;54.53;10.65;;;;;;;7.17;85.54;101896.63;5092965;28;20089;-63
2021/11/08 07:01:01;;;;;;;46.42;11.10;;;;;;;7.20;85.61;101900.84;5092547;28;20062;-63
2021/11/08 07:03:28;;;;;;;41.08;10.90;;;;;;;7.17;85.34;101904.56;5091855;28;20060;-63
2021/11/08 07:05:54;;;;;;;38.25;10.32;;;;;;;7.21;85.56;101897.28;5093147;28;20120;-62
2021/11/08 07:08:21;;;;;;;49.13;10.02;;;;;;;7.20;85.36;101887.66;5093129;28;20090;-63
2021/11/08 07:10:48;;;;;;;39.75;10.15;;;;;;;7.20;85.17;101896.41;5079507;28;20272;-63
2021/11/08 07:13:15;;;;;;;42.83;10.95;;;;;;;7.18;85.60;101900.13;5090409;28;20040;-63
2021/11/08 07:15:43;;;;;;;38.22;11.18;;;;;;;7.20;85.21;101896.41;5092068;28;20040;-63
2021/11/08 07:18:12;;;;;;;48.88;10.45;;;;;;;7.18;84.32;101902.75;5093414;28;20040;-63
2021/11/08 07:20:39;;;;;;;51.83;12.23;;;;;;;7.20;84.89;101906.97;5093046;28;20048;-62
2021/11/08 07:23:05;;;;;;;46.85;10.35;;;;;;;7.17;85.24;101909.84;5092888;28;20447;-63
2021/11/08 07:25:32;;;;;;;40.08;10.32;;;;;;;7.16;84.91;101916.06;5093755;28;20040;-63
2021/11/08 07:27:59;;;;;;;41.80;10.85;;;;;;;7.14;84.64;101920.59;5092962;28;20489;-63
2021/11/08 07:30:27;;;;;;;40.45;10.15;;;;;;;7.14;84.90;101922.38;5124428;27;20450;-63
2021/11/08 07:32:54;;;;;;;38.97;9.23;;;;;;;7.17;85.58;101930.06;5093221;28;20040;-63
2021/11/08 07:35:20;;;;;;;42.13;9.25;;;;;;;7.14;85.61;101927.66;5092435;28;20047;-63
2021/11/08 07:37:47;;;;;;;40.63;9.52;;;;;;;7.22;85.11;101941.19;5092438;28;20048;-62
2021/11/08 07:40:14;;;;;;;34.85;9.48;;;;;;;7.33;85.16;101943.09;5092348;28;20036;-62
2021/11/08 07:42:42;;;;;;;41.63;9.93;;;;;;;7.39;84.73;101937.44;5113333;28;20122;-63
2021/11/08 07:45:10;;;;;;;33.55;9.75;;;;;;;7.39;85.33;101932.16;5104853;28;20048;-63
2021/11/08 07:47:37;;;;;;;44.38;9.38;;;;;;;7.46;85.51;101936.06;5092966;28;20036;-62
2021/11/08 07:50:05;;;;;;;44.10;8.70;;;;;;;7.41;84.61;101936.34;5091703;28;20063;-62
2021/11/08 07:52:33;;;;;;;39.47;8.80;;;;;;;7.59;83.80;101944.81;5093294;28;20547;-63
2021/11/08 07:55:00;;;;;;;41.17;9.05;;;;;;;7.67;84.75;101953.06;5092642;28;20048;-63
2021/11/08 07:57:26;;;;;;;36.17;8.27;;;;;;;7.88;83.35;101957.81;5092936;28;20447;-63
2021/11/08 07:59:53;;;;;;;59.42;9.00;;;;;;;7.94;83.33;101964.47;5091138;28;20047;-64
2021/11/08 08:02:20;;;;;;;38.10;8.73;;;;;;;7.96;83.09;101955.47;5092087;28;20393;-63
2021/11/08 08:04:46;;;;;;;42.83;8.73;;;;;;;8.04;82.81;101957.56;5091422;28;20063;-63
2021/11/08 08:07:13;;;;;;;42.60;9.20;;;;;;;7.99;82.46;101970.28;5092229;28;20067;-63
2021/11/08 08:09:40;;;;;;;42.13;9.77;;;;;;;8.14;81.91;101957.78;5092577;28;20062;-63
2021/11/08 08:12:08;;;;;;;45.92;8.90;;;;;;;8.11;81.57;101971.22;5072599;28;20066;-62
2021/11/08 08:14:35;;;;;;;38.28;9.02;;;;;;;8.18;81.97;101973.31;5073963;28;20044;-60
2021/11/08 08:17:03;;;;;;;40.92;8.73;;;;;;;8.36;80.39;101971.16;5087620;28;20040;-62
2021/11/08 08:19:31;;;;;;;46.13;9.10;;;;;;;8.25;81.13;101974.56;5101212;28;20480;-62
2021/11/08 08:21:58;;;;;;;53.38;9.32;;;;;;;8.18;81.78;101977.75;5087895;28;20411;-62
2021/11/08 08:24:25;;;;;;;35.47;7.97;;;;;;;8.22;81.86;101980.09;5091509;28;20052;-61
2021/11/08 08:26:51;;;;;;;49.55;9.57;;;;;;;8.15;82.16;101977.97;5088163;28;20039;-64
2021/11/08 08:29:18;;;;;;;35.53;8.43;;;;;;;8.18;82.48;101981.22;5091333;28;20044;-64
2021/11/08 08:31:47;;;;;;;45.58;8.75;;;;;;;8.20;81.50;101975.84;5087447;28;20043;-64
2021/11/08 08:34:16;;;;;;;44.47;7.60;;;;;;;8.12;81.77;101988.78;5083391;28;20504;-64
2021/11/08 08:36:44;;;;;;;47.20;9.05;;;;;;;8.20;81.90;101987.25;5090611;28;20048;-63
2021/11/08 08:39:11;;;;;;;37.15;7.75;;;;;;;8.19;81.13;101975.00;5088239;28;20032;-63
2021/11/08 08:41:39;;;;;;;40.92;8.85;;;;;;;8.22;80.87;101981.88;5090845;28;20063;-63
2021/11/08 08:44:08;;;;;;;46.95;8.65;;;;;;;8.13;81.75;101980.75;5088358;28;20048;-63
2021/11/08 08:46:35;;;;;;;39.70;8.07;;;;;;;8.22;81.16;101974.81;5073088;28;20136;-63
2021/11/08 08:49:03;;;;;;;44.88;9.63;;;;;;;8.50;79.99;101988.72;5084158;28;20040;-63
2021/11/08 08:51:30;;;;;;;42.85;9.38;;;;;;;8.48;79.97;101987.13;5089620;28;20134;-63
2021/11/08 08:53:59;;;;;;;46.85;8.25;;;;;;;8.47;79.46;101990.75;5092413;28;20109;-63
2021/11/08 08:56:26;;;;;;;41.50;8.82;;;;;;;8.39;79.60;101997.38;5065803;28;20152;-63
2021/11/08 08:58:54;;;;;;;41.13;8.13;;;;;;;8.44;79.61;102003.22;5088026;28;20033;-63
2021/11/08 09:01:26;;;;;;;40.78;8.70;;;;;;;8.61;80.04;102003.81;5093967;28;20043;-64
2021/11/08 09:03:59;;;;;;;42.90;9.07;;;;;;;8.77;80.08;102007.06;5099119;28;20055;-63
2021/11/08 09:06:26;;;;;;;44.45;9.10;;;;;;;8.91;78.74;102008.66;5097163;28;20373;-64
2021/11/08 09:08:55;;;;;;;44.63;8.45;;;;;;;9.00;78.12;102007.16;5096500;28;20040;-63
2021/11/08 09:11:23;;;;;;;45.80;8.80;;;;;;;9.20;77.97;102005.69;5102786;28;20397;-63
2021/11/08 09:13:51;;;;;;;38.42;8.48;;;;;;;9.09;76.99;102014.41;5102819;28;20047;-63
2021/11/08 09:16:18;;;;;;;42.25;8.98;;;;;;;9.29;76.37;102022.69;5097894;28;20044;-63
2021/11/08 09:18:48;;;;;;;55.03;9.20;;;;;;;9.27;77.19;102016.69;5096363;28;20036;-64
2021/11/08 09:21:16;;;;;;;33.78;9.10;;;;;;;9.51;75.93;102028.06;5092947;28;20043;-66
2021/11/08 09:23:46;;;;;;;40.85;8.77;;;;;;;9.46;75.85;102024.06;5090180;28;20080;-63
2021/11/08 09:26:15;;;;;;;45.20;8.93;;;;;;;9.56;77.20;102017.97;5079415;28;20038;-63
2021/11/08 09:28:41;;;;;;;40.50;8.43;;;;;;;9.78;75.83;102011.88;5100502;28;20046;-63
2021/11/08 09:31:09;;;;;;;47.28;9.55;;;;;;;9.89;76.67;102013.69;5101004;28;20119;-63
2021/11/08 09:33:36;;;;;;;42.55;8.88;;;;;;;10.08;74.70;102017.59;5095027;28;20080;-63
2021/11/08 09:36:06;;;;;;;40.17;9.43;;;;;;;10.08;74.02;102022.91;5094438;28;20055;-64
2021/11/08 09:38:36;;;;;;;34.78;8.13;;;;;;;10.03;73.98;102023.25;5090495;28;20044;-64
2021/11/08 09:41:07;;;;;;;47.20;9.38;;;;;;;9.94;75.35;102016.84;5101402;28;20043;-63
2021/11/08 09:43:37;;;;;;;39.97;8.15;;;;;;;9.75;74.53;102021.88;5091007;27;20044;-64
2021/11/08 09:46:04;;;;;;;41.75;8.60;;;;;;;9.68;75.45;102018.84;5100051;28;20040;-64
2021/11/08 09:48:31;;;;;;;48.10;10.05;;;;;;;9.49;76.18;102014.09;5093252;28;20076;-62
2021/11/08 09:50:58;;;;;;;46.30;8.70;;;;;;;9.68;75.52;102013.56;5099583;28;20044;-63
2021/11/08 09:53:25;;;;;;;38.67;8.57;;;;;;;9.77;74.02;102015.50;5089416;28;20144;-63
2021/11/08 09:55:52;;;;;;;51.92;9.60;;;;;;;9.59;74.19;102016.91;5095744;28;20696;-63
2021/11/08 09:58:20;;;;;;;35.38;8.30;;;;;;;9.83;73.91;102011.53;5086124;28;20044;-63
2021/11/08 10:00:53;;;;;;;46.20;8.63;;;;;;;9.76;73.44;102019.09;5095918;28;20046;-63
2021/11/08 10:03:24;;;;;;;42.10;9.10;;;;;;;9.78;74.26;102013.69;5095154;28;20063;-65
2021/11/08 10:05:54;;;;;;;43.03;8.77;;;;;;;9.86;74.94;102013.09;5101510;28;20040;-63
2021/11/08 10:08:25;;;;;;;47.08;9.50;;;;;;;10.19;72.86;102015.78;5093451;28;20119;-63
2021/11/08 10:10:56;;;;;;;42.45;8.93;;;;;;;10.33;73.35;102009.44;5091806;28;20040;-64
2021/11/08 10:13:27;;;;;;;45.95;8.35;;;;;;;10.34;71.56;102013.75;5096744;28;20054;-63
2021/11/08 10:15:57;;;;;;;44.03;8.30;;;;;;;10.45;71.22;102015.56;5108135;27;20138;-63
2021/11/08 10:18:25;;;;;;;41.30;7.85;;;;;;;10.58;70.94;102023.38;5090765;28;20036;-63
2021/11/08 10:21:01;;;;;;;52.90;8.98;;;;;;;10.35;71.28;102014.59;5094150;28;20067;-64
2021/11/08 10:23:28;;;;;;;32.63;7.55;;;;;;;10.65;70.43;102011.31;5069557;28;20496;-63
2021/11/08 10:25:55;;;;;;;47.13;8.43;;;;;;;10.63;70.58;102020.38;5092309;28;20045;-63
2021/11/08 10:28:25;;;;;;;45.60;8.68;;;;;;;10.50;71.03;102017.84;5094730;28;20040;-62
2021/11/08 10:30:58;;;;;;;36.55;8.23;;;;;;;10.35;71.63;102009.28;5095554;28;20511;-63
2021/11/08 10:33:31;;;;;;;45.22;7.97;;;;;;;10.04;72.68;102014.34;5093564;28;20644;-63
2021/11/08 10:36:04;;;;;;;32.88;7.65;;;;;;;10.14;72.24;102023.25;5091778;28;20772;-62
2021/11/08 10:38:34;;;;;;;53.83;9.05;;;;;;;10.09;71.87;102012.16;5097163;28;20134;-63
2021/11/08 10:41:09;;;;;;;41.10;8.93;;;;;;;9.95;72.87;102010.59;5092510;28;20056;-63
2021/11/08 10:43:41;;;;;;;50.35;8.18;;;;;;;9.86;73.85;102016.59;5098010;28;20036;-63
2021/11/08 10:46:16;;;;;;;46.78;8.27;;;;;;;10.04;72.78;102019.63;5097404;28;20039;-63
2021/11/08 10:48:47;;;;;;;46.75;7.45;;;;;;;10.19;72.96;102023.72;5102577;28;20066;-63
2021/11/08 10:51:16;;;;;;;46.53;8.57;;;;;;;10.27;72.52;102022.28;5100500;28;20046;-63
2021/11/08 10:54:03;;;;;;;40.38;7.82;;;;;;;10.16;72.45;102026.63;5095832;28;20043;-63
2021/11/08 10:56:37;;;;;;;45.38;8.20;;;;;;;10.17;71.67;102022.19;5099632;28;20051;-63
2021/11/08 10:59:09;;;;;;;34.08;7.32;;;;;;;10.10;72.24;102016.50;5102195;28;20039;-63
2021/11/08 11:01:44;;;;;;;42.28;8.13;;;;;;;10.20;72.35;102019.25;5101675;28;20078;-62
2021/11/08 11:04:13;;;;;;;34.72;8.30;;;;;;;10.20;72.01;102024.56;5083531;28;20142;-62
2021/11/08 11:09:28;;;;;;;45.53;7.72;;;;;;;10.50;72.39;102013.38;5101062;27;20126;-64
2021/11/08 11:12:16;;;;;;;41.03;8.98;;;;;;;10.66;71.29;102014.78;5084482;28;20040;-63
2021/11/08 11:14:46;;;;;;;38.85;8.38;;;;;;;10.74;70.55;102012.38;5085393;28;20047;-63
2021/11/08 11:17:17;;;;;;;32.92;7.65;;;;;;;11.18;69.48;102004.41;5079490;28;20036;-63
2021/11/08 11:19:45;;;;;;;45.33;8.25;;;;;;;11.40;67.65;102006.09;5088396;28;20153;-63
2021/11/08 11:22:18;;;;;;;34.13;7.88;;;;;;;12.63;64.11;102001.69;5083966;28;20055;-63
2021/11/08 11:24:50;;;;;;;31.05;7.53;;;;;;;12.39;63.54;101998.56;5077723;28;20036;-64
2021/11/08 11:30:21;;;;;;;44.25;7.65;;;;;;;12.04;66.17;102002.47;5103833;27;20388;-62
2021/11/08 11:33:13;;;;;;;48.58;7.70;;;;;;;12.11;67.55;101998.28;5059864;28;20475;-64
2021/11/08 11:36:08;;;;;;;34.03;7.78;;;;;;;12.32;66.41;102002.72;5103570;28;20036;-64
2021/11/08 11:38:44;;;;;;;53.55;8.43;;;;;;;12.05;64.61;102007.66;5082552;28;20148;-63
2021/11/08 11:41:17;;;;;;;41.75;8.98;;;;;;;11.93;64.95;101998.06;5107755;28;20044;-63
2021/11/08 11:43:51;;;;;;;40.78;7.82;;;;;;;11.82;66.28;102003.44;5100891;28;20568;-63
2021/11/08 11:46:21;;;;;;;40.75;7.97;;;;;;;11.47;66.47;101996.66;5098958;28;20042;-63
2021/11/08 11:48:49;;;;;;;49.10;8.57;;;;;;;11.55;66.81;101988.88;5103010;28;20032;-63
2021/11/08 11:51:20;;;;;;;34.25;7.47;;;;;;;11.44;68.03;102000.41;5081631;28;20047;-63
2021/11/08 11:53:48;;;;;;;39.40;7.60;;;;;;;11.46;65.98;102003.78;5078322;28;20044;-63
2021/11/08 11:56:17;;;;;;;43.85;7.75;;;;;;;10.95;67.98;101993.84;5101395;28;20110;-62
2021/11/08 11:58:46;;;;;;;39.22;7.93;;;;;;;11.10;68.23;102000.56;5099164;28;20396;-62
2021/11/08 12:01:16;;;;;;;42.35;6.90;;;;;;;11.12;68.32;102001.28;5103070;28;20044;-62
2021/11/08 12:03:44;;;;;;;41.63;8.15;;;;;;;11.00;69.17;101999.63;5098538;28;20040;-62
2021/11/08 12:06:22;;;;;;;49.65;8.68;;;;;;;10.84;69.69;102002.72;5104876;28;20496;-62
2021/11/08 12:08:54;;;;;;;38.80;7.90;;;;;;;10.85;69.65;102003.53;5016862;28;20068;-62
2021/11/08 12:11:44;;;;;;;39.55;7.28;;;;;;;10.74;69.51;102004.41;5005023;28;20057;-62
2021/11/08 12:14:15;;;;;;;44.13;7.47;;;;;;;10.78;69.48;102002.34;5021347;28;20053;-63
2021/11/08 12:17:04;;;;;;;46.85;8.02;;;;;;;10.87;69.28;102005.09;5024369;28;20029;-64
2021/11/08 12:19:35;;;;;;;37.97;7.32;;;;;;;10.75;69.85;102009.59;5004895;28;20033;-63
2021/11/08 12:22:21;;;;;;;40.58;9.32;;;;;;;10.58;70.67;102010.13;5019499;28;20060;-64
2021/11/08 12:25:12;;;;;;;43.08;7.85;;;;;;;10.66;70.30;102006.84;5024048;28;20042;-63
2021/11/08 12:27:47;;;;;;;40.40;7.60;;;;;;;10.73;69.87;102008.91;5024115;28;20240;-63
2021/11/08 12:30:19;;;;;;;41.90;8.35;;;;;;;10.93;69.26;102001.97;5025658;28;20095;-63
2021/11/08 12:32:52;;;;;;;44.88;8.05;;;;;;;10.71;70.17;102004.66;5025996;28;20052;-63
2021/11/08 12:35:24;;;;;;;38.90;7.90;;;;;;;10.93;69.34;101996.66;5005509;28;20294;-63
2021/11/08 12:37:52;;;;;;;46.88;9.02;;;;;;;11.07;68.79;101998.16;5008602;28;20041;-63
2021/11/08 12:40:31;;;;;;;39.97;7.97;;;;;;;10.89;69.37;102000.50;5001988;28;20407;-64
2021/11/08 12:42:59;;;;;;;42.38;8.20;;;;;;;10.70;70.08;102008.28;5008917;28;20124;-63
2021/11/08 12:45:36;;;;;;;34.55;7.35;;;;;;;10.80;69.37;102003.91;5011793;28;20037;-63
2021/11/08 12:48:09;;;;;;;50.28;8.65;;;;;;;10.76;70.17;101998.00;5012484;28;20117;-63
2021/11/08 12:50:39;;;;;;;40.28;7.68;;;;;;;10.61;70.80;102001.91;5010745;28;20082;-63
2021/11/08 12:53:30;;;;;;;32.08;7.22;;;;;;;10.72;69.90;101993.91;5009891;28;20049;-63
2021/11/08 12:56:01;;;;;;;32.00;7.20;;;;;;;10.96;68.79;101984.91;5004911;28;20648;-63
2021/11/08 13:01:11;;;;;;;49.00;7.97;;;;;;;10.90;70.55;101990.75;5127229;27;20403;-64
2021/11/08 13:03:40;;;;;;;35.90;6.53;;;;;;;10.86;69.06;101982.19;5127571;27;20093;-64
2021/11/08 13:06:21;;;;;;;43.28;7.13;;;;;;;10.82;69.28;101974.59;5127590;27;20138;-64
2021/11/08 13:08:48;;;;;;;36.85;6.53;;;;;;;10.84;69.09;101983.25;5135321;27;20043;-64
2021/11/08 13:11:15;;;;;;;33.92;7.30;;;;;;;10.77;69.29;101982.94;5126354;27;20074;-64